createdAt,value
2019-03-30T00:02:18.385Z,99.90
2019-03-30T00:04:58.783Z,99.90
2019-03-30T00:07:39.756Z,99.90
2019-03-30T00:10:20.687Z,99.90
2019-03-30T00:13:01.552Z,99.90
2019-03-30T00:15:42.268Z,99.90
2019-03-30T00:18:23.279Z,99.90
2019-03-30T00:21:03.942Z,99.90
2019-03-30T00:23:45.013Z,99.90
2019-03-30T00:26:25.800Z,99.90
2019-03-30T00:29:06.342Z,99.90
2019-03-30T00:31:47.800Z,99.90
2019-03-30T00:34:28.786Z,99.90
2019-03-30T00:37:09.860Z,99.90
2019-03-30T00:39:50.501Z,99.90
2019-03-30T00:42:31.107Z,99.90
2019-03-30T00:45:11.826Z,99.90
2019-03-30T00:47:52.578Z,99.90
2019-03-30T00:50:33.536Z,99.90
2019-03-30T00:53:14.053Z,99.90
2019-03-30T00:55:55.112Z,99.90
2019-03-30T00:58:35.884Z,99.90
2019-03-30T01:01:16.699Z,99.90
2019-03-30T01:03:57.723Z,99.90
2019-03-30T01:06:38.613Z,99.90
2019-03-30T01:09:19.501Z,99.90
2019-03-30T01:11:59.854Z,99.90
2019-03-30T01:14:40.756Z,99.90
2019-03-30T01:17:21.680Z,99.90
2019-03-30T01:20:03.797Z,99.90
2019-03-30T01:22:44.817Z,99.90
2019-03-30T01:25:25.333Z,99.90
2019-03-30T01:28:06.088Z,99.90
2019-03-30T01:30:47.167Z,99.90
2019-03-30T01:33:27.871Z,99.90
2019-03-30T01:36:09.055Z,99.90
2019-03-30T01:38:49.877Z,99.90
2019-03-30T01:41:30.956Z,99.90
2019-03-30T01:44:11.252Z,99.90
2019-03-30T01:46:52.165Z,99.90
2019-03-30T01:49:32.634Z,99.90
2019-03-30T01:52:13.326Z,99.90
2019-03-30T01:54:54.552Z,99.90
2019-03-30T01:57:35.005Z,99.90
2019-03-30T02:00:16.057Z,99.90
2019-03-30T02:02:56.508Z,99.90
2019-03-30T02:05:37.291Z,99.90
2019-03-30T02:08:06.931Z,99.90
2019-03-30T02:10:41.332Z,99.90
2019-03-30T02:13:10.657Z,99.90
2019-03-30T02:15:40.111Z,99.90
2019-03-30T02:18:09.530Z,99.90
2019-03-30T02:20:40.940Z,99.90
2019-03-30T02:23:10.899Z,99.90
2019-03-30T02:25:40.669Z,99.90
2019-03-30T02:28:10.446Z,99.90
2019-03-30T02:30:39.915Z,99.90
2019-03-30T02:33:09.371Z,99.90
2019-03-30T02:35:39.074Z,99.90
2019-03-30T02:38:08.540Z,99.90
2019-03-30T02:40:37.933Z,99.90
2019-03-30T02:43:07.201Z,99.90
2019-03-30T02:46:19.620Z,99.90
2019-03-30T02:48:49.324Z,99.90
2019-03-30T02:51:18.740Z,99.90
2019-03-30T02:53:48.057Z,99.90
2019-03-30T02:56:17.455Z,99.90
2019-03-30T02:58:46.762Z,99.90
2019-03-30T03:01:16.204Z,99.90
2019-03-30T03:03:45.609Z,99.90
2019-03-30T03:06:15.493Z,99.90
2019-03-30T03:08:44.862Z,99.90
2019-03-30T03:11:14.274Z,99.90
2019-03-30T03:13:43.687Z,99.90
2019-03-30T03:16:13.169Z,99.90
2019-03-30T03:18:42.507Z,99.90
2019-03-30T03:21:11.926Z,99.90
2019-03-30T03:23:41.363Z,99.90
2019-03-30T03:26:10.692Z,99.90
2019-03-30T03:28:40.039Z,99.90
2019-03-30T03:31:09.534Z,99.90
2019-03-30T03:33:39.235Z,99.90
2019-03-30T03:36:08.911Z,99.90
2019-03-30T03:38:38.850Z,99.90
2019-03-30T03:41:08.344Z,99.90
2019-03-30T03:43:38.088Z,99.90
2019-03-30T03:46:07.458Z,99.90
2019-03-30T03:48:37.213Z,99.90
2019-03-30T03:51:24.584Z,99.90
2019-03-30T03:53:38.366Z,99.90
2019-03-30T03:56:08.348Z,99.90
2019-03-30T03:58:39.966Z,99.90
2019-03-30T04:01:09.779Z,99.90
2019-03-30T04:03:41.691Z,99.90
2019-03-30T04:06:11.565Z,99.90
2019-03-30T04:08:43.613Z,99.90
2019-03-30T04:11:14.606Z,99.90
2019-03-30T04:13:46.356Z,99.90
2019-03-30T04:16:15.705Z,99.90
2019-03-30T04:18:47.965Z,99.90
2019-03-30T04:21:17.025Z,99.90
2019-03-30T04:23:47.089Z,99.90
2019-03-30T04:26:16.406Z,99.90
2019-03-30T04:28:45.793Z,99.90
2019-03-30T04:31:15.188Z,99.90
2019-03-30T04:33:44.531Z,99.90
2019-03-30T04:36:13.863Z,99.90
2019-03-30T04:38:43.210Z,99.90
2019-03-30T04:41:12.921Z,99.90
2019-03-30T04:43:42.323Z,99.90
2019-03-30T04:46:11.712Z,99.90
2019-03-30T04:48:41.020Z,99.90
2019-03-30T04:51:10.649Z,99.90
2019-03-30T04:53:39.955Z,99.90
2019-03-30T04:56:10.045Z,99.90
2019-03-30T04:58:39.620Z,99.90
2019-03-30T05:01:09.077Z,99.90
2019-03-30T05:03:38.918Z,99.90
2019-03-30T05:06:08.351Z,99.90
2019-03-30T05:08:37.704Z,99.90
2019-03-30T05:11:07.180Z,99.90
2019-03-30T05:13:37.085Z,99.90
2019-03-30T05:16:06.491Z,99.90
2019-03-30T05:18:36.132Z,99.90
2019-03-30T05:21:05.488Z,99.90
2019-03-30T05:23:35.488Z,99.90
2019-03-30T05:26:04.948Z,99.90
2019-03-30T05:28:34.255Z,99.90
2019-03-30T05:31:03.949Z,99.90
2019-03-30T05:33:33.705Z,99.90
2019-03-30T05:36:03.126Z,99.90
2019-03-30T05:38:32.543Z,99.90
2019-03-30T05:41:02.145Z,99.90
2019-03-30T05:43:31.593Z,99.90
2019-03-30T05:46:01.037Z,99.90
2019-03-30T05:48:30.354Z,99.90
2019-03-30T05:50:59.793Z,99.90
2019-03-30T05:53:30.152Z,99.90
2019-03-30T05:55:59.790Z,99.90
2019-03-30T05:58:29.362Z,99.90
2019-03-30T06:00:58.690Z,99.90
2019-03-30T06:03:28.123Z,99.90
2019-03-30T06:05:57.521Z,99.90
2019-03-30T06:08:27.021Z,99.90
2019-03-30T06:10:56.590Z,99.90
2019-03-30T06:13:25.915Z,99.90
2019-03-30T06:15:58.474Z,99.90
2019-03-30T06:18:28.343Z,99.90
2019-03-30T06:20:57.992Z,99.90
2019-03-30T06:23:27.742Z,99.90
2019-03-30T06:25:57.082Z,99.90
2019-03-30T06:28:26.764Z,99.90
2019-03-30T06:30:56.120Z,99.90
2019-03-30T06:33:25.429Z,99.90
2019-03-30T06:35:55.077Z,99.90
2019-03-30T06:38:24.462Z,99.90
2019-03-30T06:40:53.824Z,99.90
2019-03-30T06:43:23.220Z,99.90
2019-03-30T06:45:53.073Z,99.90
2019-03-30T06:48:22.467Z,99.90
2019-03-30T06:50:51.824Z,99.90
2019-03-30T06:53:21.128Z,99.90
2019-03-30T06:55:51.126Z,99.90
2019-03-30T06:58:20.546Z,99.90
2019-03-30T07:00:51.191Z,99.90
2019-03-30T07:03:21.071Z,99.90
2019-03-30T07:05:52.231Z,99.90
2019-03-30T07:08:22.006Z,99.90
2019-03-30T07:10:51.420Z,99.90
2019-03-30T07:13:21.253Z,99.90
2019-03-30T07:15:51.154Z,99.90
2019-03-30T07:18:20.987Z,99.90
2019-03-30T07:20:50.651Z,99.90
2019-03-30T07:23:20.456Z,99.90
2019-03-30T07:25:49.974Z,99.90
2019-03-30T07:28:19.361Z,99.90
2019-03-30T07:30:48.820Z,99.90
2019-03-30T07:33:18.709Z,99.90
2019-03-30T07:35:48.206Z,99.90
2019-03-30T07:38:17.613Z,99.90
2019-03-30T07:41:06.259Z,99.90
2019-03-30T07:43:35.670Z,97.90
2019-03-30T07:46:05.109Z,91.00
2019-03-30T07:48:34.998Z,85.40
2019-03-30T07:51:04.420Z,81.70
2019-03-30T07:53:44.294Z,82.40
2019-03-30T07:56:08.740Z,77.90
2019-03-30T07:58:37.577Z,74.80
2019-03-30T08:01:07.180Z,73.80
2019-03-30T08:03:37.358Z,71.50
2019-03-30T08:06:07.168Z,71.10
2019-03-30T08:08:37.010Z,69.10
2019-03-30T08:11:06.476Z,68.60
2019-03-30T08:13:36.673Z,71.90
2019-03-30T08:16:07.046Z,67.80
2019-03-30T08:18:36.810Z,64.20
2019-03-30T08:21:06.232Z,63.10
2019-03-30T08:23:40.620Z,62.20
2019-03-30T08:26:07.291Z,60.50
2019-03-30T08:28:36.661Z,60.30
2019-03-30T08:31:06.119Z,60.00
2019-03-30T08:33:36.055Z,61.10
2019-03-30T08:36:05.944Z,58.70
2019-03-30T08:38:35.617Z,59.20
2019-03-30T08:41:04.911Z,58.80
2019-03-30T08:43:34.216Z,58.30
2019-03-30T08:46:03.885Z,58.10
2019-03-30T08:48:33.216Z,57.40
2019-03-30T08:51:02.726Z,57.60
2019-03-30T08:53:32.065Z,57.80
2019-03-30T08:56:01.708Z,57.40
2019-03-30T08:58:31.359Z,56.40
2019-03-30T09:01:00.790Z,57.20
2019-03-30T09:03:34.023Z,55.70
2019-03-30T09:06:02.501Z,56.70
2019-03-30T09:08:32.332Z,57.60
2019-03-30T09:11:02.169Z,55.40
2019-03-30T09:13:31.580Z,56.10
2019-03-30T09:16:00.984Z,58.20
2019-03-30T09:18:30.716Z,59.40
2019-03-30T09:20:59.999Z,59.00
2019-03-30T09:23:29.372Z,58.60
2019-03-30T09:25:59.172Z,61.10
2019-03-30T09:28:28.806Z,63.30
2019-03-30T09:30:58.460Z,64.20
2019-03-30T09:33:27.777Z,64.80
2019-03-30T09:35:57.104Z,69.50
2019-03-30T09:38:26.473Z,71.00
2019-03-30T09:40:55.840Z,74.20
2019-03-30T09:43:25.176Z,71.30
2019-03-30T09:45:54.831Z,72.00
2019-03-30T09:48:24.513Z,70.90
2019-03-30T09:50:54.241Z,74.40
2019-03-30T09:53:23.556Z,79.40
2019-03-30T09:55:53.165Z,78.50
2019-03-30T09:58:22.857Z,85.50
2019-03-30T10:00:52.191Z,81.70
2019-03-30T10:03:21.601Z,83.50
2019-03-30T10:05:51.347Z,81.90
2019-03-30T10:08:21.516Z,79.50
2019-03-30T10:10:50.820Z,79.80
2019-03-30T10:13:20.187Z,78.80
2019-03-30T10:15:49.684Z,78.60
2019-03-30T10:18:18.991Z,79.70
2019-03-30T10:20:48.346Z,79.20
2019-03-30T10:23:17.715Z,77.10
2019-03-30T10:25:47.023Z,79.10
2019-03-30T10:28:16.319Z,79.30
2019-03-30T10:30:46.112Z,78.60
2019-03-30T10:33:16.073Z,78.60
2019-03-30T10:35:45.671Z,79.50
2019-03-30T10:38:15.008Z,80.90
2019-03-30T10:40:44.500Z,79.70
2019-03-30T10:43:13.897Z,77.20
2019-03-30T10:45:43.203Z,78.30
2019-03-30T10:48:12.614Z,75.80
2019-03-30T10:50:41.926Z,75.50
2019-03-30T10:53:11.550Z,71.60
2019-03-30T10:55:41.508Z,73.00
2019-03-30T10:58:10.833Z,73.30
2019-03-30T11:00:41.455Z,72.80
2019-03-30T11:03:11.239Z,73.80
2019-03-30T11:05:40.685Z,74.30
2019-03-30T11:08:10.100Z,75.60
2019-03-30T11:10:39.435Z,76.00
2019-03-30T11:13:08.824Z,75.30
2019-03-30T11:15:38.259Z,74.40
2019-03-30T11:18:07.936Z,76.30
2019-03-30T11:20:37.489Z,75.60
2019-03-30T11:23:07.222Z,74.90
2019-03-30T11:25:36.660Z,74.40
2019-03-30T11:28:06.315Z,75.50
2019-03-30T11:30:36.051Z,77.10
2019-03-30T11:33:05.626Z,72.70
2019-03-30T11:35:34.998Z,70.70
2019-03-30T11:38:04.411Z,73.40
2019-03-30T11:40:34.850Z,72.20
2019-03-30T11:43:04.859Z,73.20
2019-03-30T11:45:34.171Z,77.20
2019-03-30T11:48:03.797Z,71.90
2019-03-30T11:50:33.314Z,71.70
2019-03-30T11:53:02.628Z,71.30
2019-03-30T11:55:32.205Z,73.40
2019-03-30T11:58:01.594Z,72.20
2019-03-30T12:00:30.987Z,70.50
2019-03-30T12:03:00.376Z,71.10
2019-03-30T12:05:30.071Z,68.70
2019-03-30T12:07:59.560Z,70.30
2019-03-30T12:10:29.174Z,70.80
2019-03-30T12:12:58.947Z,72.00
2019-03-30T12:15:28.675Z,72.20
2019-03-30T12:17:58.271Z,74.60
2019-03-30T12:20:27.877Z,75.90
2019-03-30T12:22:57.180Z,71.40
2019-03-30T12:25:35.572Z,72.60
2019-03-30T12:27:57.991Z,71.40
2019-03-30T12:30:27.595Z,71.10
2019-03-30T12:32:57.323Z,70.10
2019-03-30T12:35:26.679Z,69.00
2019-03-30T12:37:56.103Z,67.80
2019-03-30T12:40:25.628Z,70.90
2019-03-30T12:42:55.549Z,71.20
2019-03-30T12:45:24.947Z,68.20
2019-03-30T12:47:54.724Z,69.90
2019-03-30T12:50:24.466Z,70.50
2019-03-30T12:52:54.187Z,69.10
2019-03-30T12:55:23.589Z,69.50
2019-03-30T12:57:53.358Z,68.30
2019-03-30T13:00:22.772Z,69.10
2019-03-30T13:02:52.076Z,66.70
2019-03-30T13:05:21.944Z,67.50
2019-03-30T13:07:51.440Z,67.50
2019-03-30T13:10:20.802Z,67.70
2019-03-30T13:12:50.095Z,66.00
2019-03-30T13:15:19.663Z,65.70
2019-03-30T13:17:49.276Z,65.70
2019-03-30T13:20:18.699Z,67.00
2019-03-30T13:22:48.256Z,67.90
2019-03-30T13:25:17.647Z,66.90
2019-03-30T13:27:47.001Z,65.60
2019-03-30T13:30:17.346Z,66.20
2019-03-30T13:32:46.767Z,63.60
2019-03-30T13:35:16.230Z,63.40
2019-03-30T13:37:46.652Z,60.00
2019-03-30T13:40:16.368Z,62.20
2019-03-30T13:42:45.974Z,62.70
2019-03-30T13:45:15.480Z,61.70
2019-03-30T13:47:44.972Z,60.60
2019-03-30T13:50:14.984Z,61.30
2019-03-30T13:52:44.784Z,61.00
2019-03-30T13:55:14.839Z,60.50
2019-03-30T13:57:44.345Z,60.60
2019-03-30T14:00:14.727Z,60.80
2019-03-30T14:02:44.805Z,59.00
2019-03-30T14:05:14.724Z,58.60
2019-03-30T14:07:44.210Z,59.20
2019-03-30T14:10:13.831Z,59.10
2019-03-30T14:12:43.604Z,59.40
2019-03-30T14:15:13.097Z,58.40
2019-03-30T14:17:42.445Z,58.50
2019-03-30T14:20:12.072Z,59.50
2019-03-30T14:22:41.380Z,58.60
2019-03-30T14:25:11.123Z,58.20
2019-03-30T14:27:40.442Z,58.40
2019-03-30T14:30:10.789Z,58.20
2019-03-30T14:32:40.098Z,58.20
2019-03-30T14:35:09.497Z,58.80
2019-03-30T14:37:39.346Z,58.00
2019-03-30T14:40:09.119Z,58.60
2019-03-30T14:42:38.471Z,57.70
2019-03-30T14:45:08.689Z,56.70
2019-03-30T14:47:38.024Z,56.60
2019-03-30T14:50:09.827Z,57.60
2019-03-30T14:52:39.307Z,57.40
2019-03-30T14:55:09.171Z,56.70
2019-03-30T14:57:38.575Z,57.00
2019-03-30T15:00:08.637Z,59.20
2019-03-30T15:02:38.287Z,56.80
2019-03-30T15:05:09.619Z,55.30
2019-03-30T15:07:39.067Z,56.50
2019-03-30T15:10:09.313Z,54.90
2019-03-30T15:12:39.075Z,54.40
2019-03-30T15:15:10.109Z,54.10
2019-03-30T15:17:40.942Z,56.50
2019-03-30T15:20:11.280Z,54.10
2019-03-30T15:22:40.618Z,54.30
2019-03-30T15:25:10.558Z,53.70
2019-03-30T15:27:40.251Z,54.10
2019-03-30T15:30:10.510Z,53.90
2019-03-30T15:32:39.820Z,53.30
2019-03-30T15:35:09.520Z,53.70
2019-03-30T15:37:39.671Z,55.10
2019-03-30T15:40:09.747Z,53.20
2019-03-30T15:42:40.437Z,53.30
2019-03-30T15:45:10.319Z,52.90
2019-03-30T15:47:39.792Z,50.00
2019-03-30T15:50:09.829Z,48.30
2019-03-30T15:52:39.201Z,49.80
2019-03-30T15:55:09.008Z,50.00
2019-03-30T15:57:38.596Z,50.30
2019-03-30T16:00:10.372Z,51.40
2019-03-30T16:02:39.764Z,48.90
2019-03-30T16:05:09.381Z,48.50
2019-03-30T16:07:39.180Z,49.70
2019-03-30T16:10:08.665Z,50.00
2019-03-30T16:12:38.036Z,50.70
2019-03-30T16:15:07.632Z,50.10
2019-03-30T16:17:36.943Z,48.90
2019-03-30T16:20:07.751Z,47.80
2019-03-30T16:22:37.432Z,48.50
2019-03-30T16:25:07.416Z,48.40
2019-03-30T16:27:39.223Z,48.50
2019-03-30T16:30:08.920Z,50.70
2019-03-30T16:32:38.372Z,51.60
2019-03-30T16:35:07.934Z,52.80
2019-03-30T16:37:37.290Z,54.20
2019-03-30T16:40:07.472Z,51.00
2019-03-30T16:42:37.125Z,52.70
2019-03-30T16:45:06.872Z,52.90
2019-03-30T16:47:36.243Z,53.80
2019-03-30T16:50:07.619Z,51.30
2019-03-30T16:52:40.809Z,50.00
2019-03-30T16:55:08.527Z,51.00
2019-03-30T16:57:43.778Z,51.60
2019-03-30T17:00:09.558Z,50.20
2019-03-30T17:02:38.906Z,52.60
2019-03-30T17:05:08.682Z,54.70
2019-03-30T17:07:38.031Z,55.40
2019-03-30T17:10:07.953Z,54.30
2019-03-30T17:12:37.406Z,53.80
2019-03-30T17:15:07.483Z,55.30
2019-03-30T17:17:37.118Z,54.80
2019-03-30T17:20:07.882Z,55.10
2019-03-30T17:22:37.271Z,54.40
2019-03-30T17:25:07.499Z,55.00
2019-03-30T17:27:37.243Z,54.10
2019-03-30T17:30:07.704Z,54.90
2019-03-30T17:32:37.206Z,55.00
2019-03-30T17:35:06.665Z,55.00
2019-03-30T17:37:36.243Z,55.20
2019-03-30T17:40:07.140Z,55.50
2019-03-30T17:42:38.730Z,55.70
2019-03-30T17:45:08.760Z,56.20
2019-03-30T17:47:38.158Z,56.80
2019-03-30T17:50:08.362Z,57.20
2019-03-30T17:52:37.831Z,57.50
2019-03-30T17:55:07.875Z,57.50
2019-03-30T17:57:37.270Z,57.50
2019-03-30T18:00:09.356Z,57.70
2019-03-30T18:02:39.219Z,57.60
2019-03-30T18:05:09.151Z,58.10
2019-03-30T18:07:38.882Z,58.40
2019-03-30T18:10:08.509Z,59.30
2019-03-30T18:12:37.795Z,64.20
2019-03-30T18:15:08.153Z,64.00
2019-03-30T18:17:38.053Z,62.70
2019-03-30T18:20:08.543Z,62.20
2019-03-30T18:22:38.099Z,62.40
2019-03-30T18:25:07.655Z,62.60
2019-03-30T18:27:37.227Z,61.90
2019-03-30T18:30:06.940Z,62.30
2019-03-30T18:32:36.439Z,62.70
2019-03-30T18:35:06.511Z,62.90
2019-03-30T18:37:36.330Z,63.00
2019-03-30T18:40:07.282Z,62.50
2019-03-30T18:42:37.059Z,64.10
2019-03-30T18:45:08.566Z,63.70
2019-03-30T18:47:37.980Z,63.90
2019-03-30T18:50:07.559Z,64.70
2019-03-30T18:52:37.454Z,65.10
2019-03-30T18:55:06.936Z,66.20
2019-03-30T18:57:36.911Z,66.00
2019-03-30T19:00:06.940Z,68.30
2019-03-30T19:02:36.405Z,68.00
2019-03-30T19:05:06.739Z,68.90
2019-03-30T19:07:36.303Z,69.40
2019-03-30T19:10:06.152Z,70.10
2019-03-30T19:12:35.884Z,69.90
2019-03-30T19:15:06.397Z,70.00
2019-03-30T19:17:36.239Z,71.80
2019-03-30T19:20:06.174Z,73.30
2019-03-30T19:22:35.580Z,72.50
2019-03-30T19:25:05.829Z,72.70
2019-03-30T19:27:35.597Z,73.60
2019-03-30T19:30:05.731Z,76.70
2019-03-30T19:32:35.085Z,79.20
2019-03-30T19:35:04.711Z,80.80
2019-03-30T19:37:34.063Z,79.90
2019-03-30T19:40:03.956Z,81.50
2019-03-30T19:42:33.465Z,83.80
2019-03-30T19:45:04.301Z,88.20
2019-03-30T19:47:33.607Z,89.80
2019-03-30T19:50:03.077Z,91.30
2019-03-30T19:52:39.840Z,93.40
2019-03-30T19:55:03.704Z,94.60
2019-03-30T19:57:33.016Z,96.40
2019-03-30T20:00:02.332Z,97.50
2019-03-30T20:02:31.690Z,97.70
2019-03-30T20:05:01.140Z,97.80
2019-03-30T20:07:30.636Z,97.90
2019-03-30T20:10:00.003Z,98.50
2019-03-30T20:12:33.356Z,99.20
2019-03-30T20:15:02.749Z,99.10
2019-03-30T20:17:32.824Z,99.90
2019-03-30T20:20:03.255Z,99.90
2019-03-30T20:22:32.548Z,99.90
2019-03-30T20:25:01.865Z,99.90
2019-03-30T20:27:31.321Z,99.90
2019-03-30T20:30:01.464Z,99.90
2019-03-30T20:32:31.141Z,99.90
2019-03-30T20:35:01.888Z,99.90
2019-03-30T20:37:32.021Z,99.90
2019-03-30T20:40:01.388Z,99.90
2019-03-30T20:42:31.227Z,99.90
2019-03-30T20:45:00.540Z,99.90
2019-03-30T20:47:29.866Z,99.90
2019-03-30T20:49:59.650Z,99.90
2019-03-30T20:52:29.376Z,99.90
2019-03-30T20:54:58.761Z,99.90
2019-03-30T20:57:28.060Z,99.90
2019-03-30T20:59:57.504Z,99.90
2019-03-30T21:02:27.877Z,99.90
2019-03-30T21:04:57.500Z,99.90
2019-03-30T21:07:26.861Z,99.90
2019-03-30T21:09:56.350Z,99.90
2019-03-30T21:12:25.792Z,99.90
2019-03-30T21:14:55.732Z,99.90
2019-03-30T21:17:25.056Z,99.90
2019-03-30T21:19:54.493Z,99.90
2019-03-30T21:22:23.825Z,99.90
2019-03-30T21:24:53.822Z,99.90
2019-03-30T21:27:23.873Z,99.90
2019-03-30T21:29:54.785Z,99.90
2019-03-30T21:32:24.532Z,99.90
2019-03-30T21:34:54.138Z,99.90
2019-03-30T21:37:23.430Z,99.90
2019-03-30T21:39:52.847Z,99.90
2019-03-30T21:42:22.248Z,99.90
2019-03-30T21:44:51.628Z,99.90
2019-03-30T21:47:20.964Z,99.90
2019-03-30T21:49:50.992Z,99.90
2019-03-30T21:52:20.595Z,99.90
2019-03-30T21:54:50.043Z,99.90
2019-03-30T21:57:19.663Z,99.90
2019-03-30T21:59:48.956Z,99.90
2019-03-30T22:02:19.175Z,99.90
2019-03-30T22:04:48.560Z,99.90
2019-03-30T22:07:18.524Z,99.90
2019-03-30T22:09:48.441Z,99.90
2019-03-30T22:12:18.086Z,99.90
2019-03-30T22:14:47.464Z,99.90
2019-03-30T22:17:16.800Z,99.90
2019-03-30T22:19:46.096Z,99.90
2019-03-30T22:22:15.495Z,99.90
2019-03-30T22:24:45.356Z,99.90
2019-03-30T22:27:14.769Z,99.90
2019-03-30T22:29:44.107Z,99.90
2019-03-30T22:32:14.349Z,99.90
2019-03-30T22:34:44.137Z,99.90
2019-03-30T22:37:13.829Z,99.90
2019-03-30T22:39:43.433Z,99.90
2019-03-30T22:42:12.755Z,99.90
2019-03-30T22:44:42.111Z,99.90
2019-03-30T22:47:11.731Z,99.90
2019-03-30T22:49:41.349Z,99.90
2019-03-30T22:52:11.014Z,99.90
2019-03-30T22:54:40.736Z,99.90
2019-03-30T22:57:10.103Z,99.90
2019-03-30T22:59:39.433Z,99.90
2019-03-30T23:02:09.511Z,99.90
2019-03-30T23:04:39.157Z,99.90
2019-03-30T23:07:08.563Z,99.90
2019-03-30T23:09:37.936Z,99.90
2019-03-30T23:12:07.256Z,99.90
2019-03-30T23:14:36.716Z,99.90
2019-03-30T23:17:06.175Z,99.90
2019-03-30T23:19:35.568Z,99.90
2019-03-30T23:22:04.936Z,99.90
2019-03-30T23:24:34.277Z,99.90
2019-03-30T23:27:03.575Z,99.90
2019-03-30T23:29:33.211Z,99.90
2019-03-30T23:32:02.514Z,99.90
2019-03-30T23:34:32.148Z,99.90
2019-03-30T23:37:01.760Z,99.90
2019-03-30T23:39:31.449Z,99.90
2019-03-30T23:42:01.032Z,99.90
2019-03-30T23:44:30.435Z,99.90
2019-03-30T23:46:59.732Z,99.90
2019-03-30T23:49:32.711Z,99.90
2019-03-30T23:52:02.544Z,99.90
2019-03-30T23:54:31.923Z,99.90
2019-03-30T23:57:01.318Z,99.90
2019-03-30T23:59:30.608Z,99.90
